createdAt,value
2018-09-14T00:01:52.090Z,7.40
2018-09-14T00:04:20.573Z,7.40
2018-09-14T00:06:49.225Z,7.40
2018-09-14T00:09:17.768Z,7.40
2018-09-14T00:11:46.332Z,7.30
2018-09-14T00:14:14.871Z,7.30
2018-09-14T00:16:43.384Z,7.30
2018-09-14T00:19:11.912Z,7.30
2018-09-14T00:21:40.449Z,7.30
2018-09-14T00:24:08.962Z,7.20
2018-09-14T00:26:37.495Z,7.20
2018-09-14T00:29:06.080Z,7.10
2018-09-14T00:31:34.616Z,7.10
2018-09-14T00:34:03.104Z,7.10
2018-09-14T00:36:31.614Z,7.10
2018-09-14T00:39:00.125Z,7.10
2018-09-14T00:41:28.633Z,7.20
2018-09-14T00:43:57.148Z,7.20
2018-09-14T00:46:25.697Z,7.10
2018-09-14T00:48:54.163Z,7.10
2018-09-14T00:51:22.688Z,7.10
2018-09-14T00:53:51.185Z,7.10
2018-09-14T00:56:19.683Z,7.10
2018-09-14T00:58:48.193Z,7.10
2018-09-14T01:01:16.705Z,7.00
2018-09-14T01:03:45.243Z,7.10
2018-09-14T01:06:13.776Z,7.10
2018-09-14T01:08:42.296Z,7.20
2018-09-14T01:11:10.816Z,7.20
2018-09-14T01:13:39.323Z,7.20
2018-09-14T01:16:07.892Z,7.20
2018-09-14T01:18:36.444Z,7.20
2018-09-14T01:21:04.985Z,7.20
2018-09-14T01:23:33.492Z,7.10
2018-09-14T01:26:02.003Z,7.20
2018-09-14T01:28:30.568Z,7.20
2018-09-14T01:30:59.038Z,7.20
2018-09-14T01:33:27.608Z,7.20
2018-09-14T01:36:01.505Z,7.30
2018-09-14T01:38:30.021Z,7.30
2018-09-14T01:40:58.589Z,7.30
2018-09-14T01:43:27.135Z,7.20
2018-09-14T01:45:55.648Z,7.10
2018-09-14T01:48:24.107Z,7.10
2018-09-14T01:50:52.612Z,7.20
2018-09-14T01:53:21.131Z,7.20
2018-09-14T01:55:49.671Z,7.30
2018-09-14T01:58:18.171Z,7.30
2018-09-14T02:00:46.700Z,7.20
2018-09-14T02:03:15.469Z,7.10
2018-09-14T02:05:43.913Z,7.10
2018-09-14T02:08:12.442Z,7.00
2018-09-14T02:10:40.990Z,7.00
2018-09-14T02:13:09.533Z,7.10
2018-09-14T02:15:38.021Z,7.10
2018-09-14T02:18:06.528Z,7.10
2018-09-14T02:20:35.039Z,7.20
2018-09-14T02:23:03.590Z,7.20
2018-09-14T02:25:32.126Z,7.10
2018-09-14T02:28:00.660Z,7.10
2018-09-14T02:30:29.176Z,7.10
2018-09-14T02:32:57.665Z,7.10
2018-09-14T02:35:26.115Z,7.20
2018-09-14T02:37:54.604Z,7.20
2018-09-14T02:40:23.117Z,7.30
2018-09-14T02:42:51.592Z,7.30
2018-09-14T02:45:20.121Z,7.30
2018-09-14T02:47:48.637Z,7.40
2018-09-14T02:50:17.117Z,7.30
2018-09-14T02:52:45.606Z,7.20
2018-09-14T02:55:14.147Z,7.10
2018-09-14T02:57:43.179Z,7.00
2018-09-14T03:00:11.842Z,6.90
2018-09-14T03:02:40.340Z,6.90
2018-09-14T03:05:08.895Z,6.80
2018-09-14T03:07:37.398Z,6.80
2018-09-14T03:10:06.057Z,6.80
2018-09-14T03:12:34.616Z,6.70
2018-09-14T03:15:03.172Z,6.70
2018-09-14T03:17:31.634Z,6.70
2018-09-14T03:20:00.168Z,6.60
2018-09-14T03:22:28.612Z,6.70
2018-09-14T03:24:57.107Z,6.80
2018-09-14T03:27:25.577Z,6.80
2018-09-14T03:29:54.058Z,6.80
2018-09-14T03:32:22.657Z,6.80
2018-09-14T03:34:51.163Z,6.80
2018-09-14T03:37:19.657Z,6.80
2018-09-14T03:39:48.138Z,6.80
2018-09-14T03:42:16.684Z,6.80
2018-09-14T03:44:45.173Z,6.90
2018-09-14T03:47:13.660Z,7.00
2018-09-14T03:49:42.136Z,7.00
2018-09-14T03:52:10.667Z,7.00
2018-09-14T03:54:39.184Z,7.00
2018-09-14T03:57:07.675Z,6.90
2018-09-14T03:59:38.193Z,6.80
2018-09-14T04:02:07.623Z,6.80
2018-09-14T04:04:36.692Z,6.70
2018-09-14T04:07:05.177Z,6.60
2018-09-14T04:09:33.645Z,6.60
2018-09-14T04:12:02.127Z,6.60
2018-09-14T04:14:30.636Z,6.60
2018-09-14T04:16:59.089Z,6.60
2018-09-14T04:19:27.623Z,6.70
2018-09-14T04:21:56.148Z,6.60
2018-09-14T04:24:24.596Z,6.60
2018-09-14T04:26:53.074Z,6.50
2018-09-14T04:29:21.596Z,6.40
2018-09-14T04:31:50.129Z,6.30
2018-09-14T04:34:18.652Z,6.30
2018-09-14T04:36:47.163Z,6.30
2018-09-14T04:39:15.668Z,6.30
2018-09-14T04:41:44.240Z,6.20
2018-09-14T04:44:12.777Z,6.30
2018-09-14T04:46:41.285Z,6.30
2018-09-14T04:49:09.798Z,6.30
2018-09-14T04:51:38.272Z,6.30
2018-09-14T04:54:06.807Z,6.40
2018-09-14T04:56:35.306Z,6.40
2018-09-14T04:59:03.852Z,6.40
2018-09-14T05:01:32.386Z,6.40
2018-09-14T05:04:00.894Z,6.50
2018-09-14T05:06:29.450Z,6.60
2018-09-14T05:08:57.944Z,6.60
2018-09-14T05:11:26.537Z,6.60
2018-09-14T05:13:55.624Z,6.60
2018-09-14T05:16:24.137Z,6.60
2018-09-14T05:18:52.619Z,6.70
2018-09-14T05:21:21.159Z,6.80
2018-09-14T05:23:49.599Z,6.90
2018-09-14T05:26:18.093Z,6.90
2018-09-14T05:28:46.586Z,7.00
2018-09-14T05:31:15.068Z,7.00
2018-09-14T05:33:43.517Z,7.00
2018-09-14T05:36:12.018Z,7.10
2018-09-14T05:38:40.467Z,7.20
2018-09-14T05:41:08.962Z,7.20
2018-09-14T05:43:37.445Z,7.20
2018-09-14T05:46:06.005Z,7.10
2018-09-14T05:48:34.472Z,7.20
2018-09-14T05:51:02.993Z,7.30
2018-09-14T05:53:31.445Z,7.30
2018-09-14T05:55:59.951Z,7.40
2018-09-14T05:58:28.480Z,7.40
2018-09-14T06:00:56.990Z,7.50
2018-09-14T06:03:25.469Z,7.50
2018-09-14T06:05:53.969Z,7.60
2018-09-14T06:08:22.455Z,7.70
2018-09-14T06:10:51.008Z,7.70
2018-09-14T06:13:19.583Z,7.80
2018-09-14T06:15:48.099Z,7.80
2018-09-14T06:18:16.599Z,7.80
2018-09-14T06:20:45.180Z,7.90
2018-09-14T06:23:13.723Z,8.00
2018-09-14T06:28:16.991Z,8.10
2018-09-14T06:30:45.506Z,8.20
2018-09-14T06:33:14.004Z,8.30
2018-09-14T06:35:42.466Z,8.40
2018-09-14T06:38:11.031Z,8.50
2018-09-14T06:40:39.496Z,8.60
2018-09-14T06:43:07.999Z,8.60
2018-09-14T06:45:36.472Z,8.70
2018-09-14T06:48:04.983Z,8.80
2018-09-14T06:50:33.468Z,8.80
2018-09-14T06:53:02.011Z,8.90
2018-09-14T06:55:30.622Z,9.00
2018-09-14T06:57:59.129Z,9.10
2018-09-14T07:00:27.746Z,9.10
2018-09-14T07:02:56.268Z,9.30
2018-09-14T07:05:24.761Z,9.30
2018-09-14T07:07:53.268Z,9.40
2018-09-14T07:10:21.724Z,9.50
2018-09-14T07:12:50.201Z,9.70
2018-09-14T07:15:18.704Z,9.80
2018-09-14T07:17:47.206Z,9.90
2018-09-14T07:20:15.734Z,10.00
2018-09-14T07:22:44.291Z,10.10
2018-09-14T07:25:12.802Z,10.30
2018-09-14T07:27:41.539Z,10.40
2018-09-14T07:30:10.056Z,10.50
2018-09-14T07:32:38.609Z,10.60
2018-09-14T07:35:07.131Z,10.80
2018-09-14T07:37:35.646Z,10.90
2018-09-14T07:40:04.184Z,11.00
2018-09-14T07:42:32.735Z,11.10
2018-09-14T07:45:01.275Z,11.20
2018-09-14T07:47:29.815Z,11.30
2018-09-14T07:49:58.369Z,11.40
2018-09-14T07:52:27.428Z,11.60
2018-09-14T07:54:55.959Z,11.80
2018-09-14T07:57:24.532Z,12.00
2018-09-14T07:59:53.037Z,12.10
2018-09-14T08:02:21.719Z,12.30
2018-09-14T08:04:50.225Z,12.40
2018-09-14T08:07:18.724Z,12.50
2018-09-14T08:09:47.795Z,12.70
2018-09-14T08:12:16.277Z,12.80
2018-09-14T08:14:44.850Z,12.90
2018-09-14T08:17:13.364Z,13.10
2018-09-14T08:19:41.927Z,13.20
2018-09-14T08:22:10.410Z,13.40
2018-09-14T08:24:38.989Z,13.60
2018-09-14T08:27:07.526Z,13.70
2018-09-14T08:29:36.041Z,13.80
2018-09-14T08:32:04.581Z,14.00
2018-09-14T08:34:33.165Z,14.20
2018-09-14T08:37:01.623Z,14.40
2018-09-14T08:39:30.129Z,14.60
2018-09-14T08:41:58.682Z,14.80
2018-09-14T08:44:27.270Z,15.10
2018-09-14T08:46:55.851Z,15.30
2018-09-14T08:49:24.621Z,15.50
2018-09-14T08:51:53.148Z,15.70
2018-09-14T08:54:21.666Z,15.80
2018-09-14T08:56:50.247Z,16.00
2018-09-14T08:59:18.916Z,16.00
2018-09-14T09:01:47.444Z,16.00
2018-09-14T09:04:15.952Z,15.80
2018-09-14T09:06:44.578Z,15.60
2018-09-14T09:09:13.670Z,15.50
2018-09-14T09:11:42.685Z,15.40
2018-09-14T09:14:11.247Z,15.50
2018-09-14T09:16:40.371Z,15.60
2018-09-14T09:19:09.370Z,15.70
2018-09-14T09:21:37.849Z,15.70
2018-09-14T09:24:06.439Z,15.80
2018-09-14T09:26:34.929Z,15.90
2018-09-14T09:29:03.497Z,15.90
2018-09-14T09:31:32.015Z,16.00
2018-09-14T09:34:00.525Z,16.10
2018-09-14T09:36:28.968Z,16.20
2018-09-14T09:38:57.483Z,16.40
2018-09-14T09:41:25.977Z,16.50
2018-09-14T09:43:54.548Z,16.70
2018-09-14T09:46:23.048Z,16.80
2018-09-14T09:48:51.672Z,16.90
2018-09-14T09:51:20.353Z,17.00
2018-09-14T09:53:48.716Z,17.10
2018-09-14T09:56:17.253Z,17.30
2018-09-14T09:58:45.776Z,17.30
2018-09-14T10:01:19.496Z,17.30
2018-09-14T10:03:53.408Z,17.40
2018-09-14T10:06:23.865Z,17.50
2018-09-14T10:08:52.688Z,17.60
2018-09-14T10:11:21.209Z,17.70
2018-09-14T10:13:50.001Z,17.70
2018-09-14T10:16:18.575Z,17.70
2018-09-14T10:18:47.072Z,17.70
2018-09-14T10:21:15.700Z,17.70
2018-09-14T10:23:44.139Z,17.80
2018-09-14T10:26:12.590Z,17.90
2018-09-14T10:28:41.116Z,18.10
2018-09-14T10:31:09.842Z,18.30
2018-09-14T10:33:38.346Z,18.40
2018-09-14T10:36:06.932Z,18.60
2018-09-14T10:38:35.436Z,18.70
2018-09-14T10:41:03.939Z,18.80
2018-09-14T10:43:32.498Z,18.80
2018-09-14T10:46:01.020Z,18.70
2018-09-14T10:48:29.516Z,18.60
2018-09-14T10:50:58.223Z,18.70
2018-09-14T10:53:26.755Z,18.60
2018-09-14T10:55:55.257Z,18.40
2018-09-14T10:58:24.045Z,18.30
2018-09-14T11:00:52.611Z,18.40
2018-09-14T11:03:21.110Z,18.50
2018-09-14T11:05:49.601Z,18.60
2018-09-14T11:08:18.167Z,18.90
2018-09-14T11:10:46.684Z,19.20
2018-09-14T11:13:15.189Z,19.30
2018-09-14T11:15:43.667Z,19.40
2018-09-14T11:18:12.237Z,19.40
2018-09-14T11:20:40.791Z,19.40
2018-09-14T11:23:09.317Z,19.70
2018-09-14T11:25:37.867Z,19.70
2018-09-14T11:28:06.557Z,19.60
2018-09-14T11:30:35.110Z,19.70
2018-09-14T11:33:03.614Z,19.80
2018-09-14T11:35:32.182Z,19.90
2018-09-14T11:38:00.795Z,20.00
2018-09-14T11:40:29.331Z,19.90
2018-09-14T11:42:57.833Z,19.80
2018-09-14T11:45:26.547Z,19.80
2018-09-14T11:47:55.101Z,19.80
2018-09-14T11:50:23.637Z,19.80
2018-09-14T11:52:52.156Z,19.80
2018-09-14T11:55:20.703Z,19.90
2018-09-14T11:57:49.243Z,19.90
2018-09-14T12:00:17.809Z,19.80
2018-09-14T12:02:46.354Z,19.90
2018-09-14T12:05:14.845Z,20.00
2018-09-14T12:07:43.439Z,20.00
2018-09-14T12:10:11.978Z,20.10
2018-09-14T12:12:40.481Z,20.00
2018-09-14T12:15:09.053Z,20.00
2018-09-14T12:17:37.581Z,20.00
2018-09-14T12:20:06.161Z,19.90
2018-09-14T12:22:34.660Z,19.80
2018-09-14T12:25:03.214Z,19.80
2018-09-14T12:27:31.762Z,19.90
2018-09-14T12:30:00.261Z,20.10
2018-09-14T12:32:28.804Z,20.10
2018-09-14T12:34:57.357Z,20.20
2018-09-14T12:37:25.895Z,20.10
2018-09-14T12:39:54.445Z,19.90
2018-09-14T12:42:22.956Z,19.70
2018-09-14T12:44:51.501Z,19.70
2018-09-14T12:47:20.054Z,19.50
2018-09-14T12:49:48.622Z,19.40
2018-09-14T12:52:17.407Z,19.50
2018-09-14T12:54:45.961Z,19.50
2018-09-14T12:57:14.692Z,19.40
2018-09-14T12:59:43.258Z,19.50
2018-09-14T13:02:11.765Z,19.60
2018-09-14T13:04:40.313Z,19.70
2018-09-14T13:07:08.907Z,19.80
2018-09-14T13:09:37.752Z,19.80
2018-09-14T13:12:06.346Z,19.80
2018-09-14T13:14:34.902Z,19.90
2018-09-14T13:17:03.465Z,19.90
2018-09-14T13:19:32.015Z,20.10
2018-09-14T13:22:00.538Z,20.20
2018-09-14T13:24:29.069Z,20.20
2018-09-14T13:26:57.618Z,20.30
2018-09-14T13:29:26.145Z,20.40
2018-09-14T13:31:55.737Z,20.40
2018-09-14T13:34:24.305Z,20.40
2018-09-14T13:36:52.849Z,20.30
2018-09-14T13:39:21.342Z,20.30
2018-09-14T13:41:49.895Z,20.30
2018-09-14T13:44:18.433Z,20.30
2018-09-14T13:46:46.935Z,20.10
2018-09-14T13:49:15.470Z,20.00
2018-09-14T13:51:43.959Z,19.90
2018-09-14T13:54:12.488Z,19.80
2018-09-14T13:56:41.099Z,19.70
2018-09-14T13:59:09.608Z,19.70
2018-09-14T14:01:38.230Z,19.60
2018-09-14T14:04:06.743Z,19.50
2018-09-14T14:06:35.288Z,19.30
2018-09-14T14:09:04.227Z,19.10
2018-09-14T14:11:32.798Z,19.00
2018-09-14T14:14:01.349Z,19.00
2018-09-14T14:16:30.021Z,19.10
2018-09-14T14:18:58.596Z,19.10
2018-09-14T14:21:27.112Z,19.30
2018-09-14T14:23:55.646Z,19.30
2018-09-14T14:26:24.169Z,19.20
2018-09-14T14:28:52.664Z,19.10
2018-09-14T14:31:21.216Z,19.00
2018-09-14T14:33:50.058Z,19.00
2018-09-14T14:36:18.564Z,19.00
2018-09-14T14:38:47.105Z,18.90
2018-09-14T14:41:15.657Z,18.80
2018-09-14T14:43:44.188Z,18.80
2018-09-14T14:46:13.128Z,18.80
2018-09-14T14:48:41.689Z,18.80
2018-09-14T14:51:10.217Z,18.80
2018-09-14T14:53:38.761Z,18.80
2018-09-14T14:56:07.536Z,18.80
2018-09-14T14:58:36.073Z,18.80
2018-09-14T15:01:04.572Z,18.80
2018-09-14T15:03:33.100Z,18.70
2018-09-14T15:06:01.637Z,18.70
2018-09-14T15:08:30.194Z,18.70
2018-09-14T15:10:59.429Z,18.70
2018-09-14T15:13:28.227Z,18.70
2018-09-14T15:15:56.801Z,18.60
2018-09-14T15:18:25.521Z,18.60
2018-09-14T15:20:54.104Z,18.60
2018-09-14T15:23:22.615Z,18.60
2018-09-14T15:25:51.173Z,18.60
2018-09-14T15:28:21.282Z,18.60
2018-09-14T15:30:49.817Z,18.60
2018-09-14T15:33:18.369Z,18.60
2018-09-14T15:35:46.903Z,18.60
2018-09-14T15:38:15.521Z,18.60
2018-09-14T15:40:44.064Z,18.70
2018-09-14T15:43:12.629Z,18.70
2018-09-14T15:45:41.172Z,18.70
2018-09-14T15:48:09.717Z,18.60
2018-09-14T15:50:38.257Z,18.60
2018-09-14T15:53:06.774Z,18.50
2018-09-14T15:55:35.329Z,18.50
2018-09-14T15:58:03.890Z,18.40
2018-09-14T16:00:32.441Z,18.30
2018-09-14T16:03:00.995Z,18.30
2018-09-14T16:05:29.549Z,18.20
2018-09-14T16:07:58.037Z,18.20
2018-09-14T16:10:26.602Z,18.10
2018-09-14T16:12:55.190Z,18.10
2018-09-14T16:15:23.771Z,18.10
2018-09-14T16:17:52.421Z,18.00
2018-09-14T16:20:20.931Z,17.90
2018-09-14T16:22:49.465Z,17.90
2018-09-14T16:25:18.062Z,17.80
2018-09-14T16:27:46.738Z,17.80
2018-09-14T16:30:15.418Z,17.70
2018-09-14T16:32:44.024Z,17.60
2018-09-14T16:35:12.581Z,17.60
2018-09-14T16:37:41.141Z,17.50
2018-09-14T16:40:09.661Z,17.40
2018-09-14T16:42:38.374Z,17.40
2018-09-14T16:45:07.304Z,17.30
2018-09-14T16:47:36.023Z,17.20
2018-09-14T16:50:04.626Z,17.20
2018-09-14T16:52:33.135Z,17.10
2018-09-14T16:55:01.713Z,17.00
2018-09-14T16:57:30.238Z,16.90
2018-09-14T16:59:58.785Z,16.90
2018-09-14T17:02:27.328Z,16.80
2018-09-14T17:04:55.861Z,16.70
2018-09-14T17:07:24.405Z,16.70
2018-09-14T17:09:52.957Z,16.70
2018-09-14T17:12:21.528Z,16.60
2018-09-14T17:14:50.081Z,16.60
2018-09-14T17:17:18.579Z,16.50
2018-09-14T17:19:47.114Z,16.50
2018-09-14T17:22:15.626Z,16.50
2018-09-14T17:24:44.345Z,16.40
2018-09-14T17:27:12.868Z,16.40
2018-09-14T17:29:41.469Z,16.30
2018-09-14T17:32:10.053Z,16.30
2018-09-14T17:34:38.589Z,16.30
2018-09-14T17:37:07.185Z,16.30
2018-09-14T17:39:35.718Z,16.30
2018-09-14T17:42:04.279Z,16.20
2018-09-14T17:44:32.830Z,16.20
2018-09-14T17:47:01.361Z,16.20
2018-09-14T17:49:29.881Z,16.20
2018-09-14T17:51:58.437Z,16.20
2018-09-14T17:54:27.016Z,16.20
2018-09-14T17:56:55.591Z,16.10
2018-09-14T17:59:24.106Z,16.00
2018-09-14T18:01:52.666Z,16.00
2018-09-14T18:04:21.412Z,15.90
2018-09-14T18:06:49.996Z,15.90
2018-09-14T18:09:18.496Z,15.90
2018-09-14T18:11:47.109Z,15.90
2018-09-14T18:14:15.636Z,15.90
2018-09-14T18:16:44.213Z,15.80
2018-09-14T18:19:12.858Z,15.80
2018-09-14T18:21:41.400Z,15.80
2018-09-14T18:24:09.922Z,15.80
2018-09-14T18:26:38.413Z,15.70
2018-09-14T18:29:06.976Z,15.70
2018-09-14T18:31:35.536Z,15.60
2018-09-14T18:34:04.121Z,15.60
2018-09-14T18:36:32.645Z,15.60
2018-09-14T18:39:01.186Z,15.60
2018-09-14T18:41:29.755Z,15.50
2018-09-14T18:43:58.297Z,15.50
2018-09-14T18:46:26.884Z,15.50
2018-09-14T18:48:55.414Z,15.50
2018-09-14T18:51:23.921Z,15.40
2018-09-14T18:53:52.448Z,15.40
2018-09-14T18:56:21.004Z,15.30
2018-09-14T18:58:49.549Z,15.30
2018-09-14T19:01:18.069Z,15.20
2018-09-14T19:03:46.666Z,15.20
2018-09-14T19:06:15.192Z,15.10
2018-09-14T19:08:43.760Z,15.00
2018-09-14T19:11:12.329Z,15.00
2018-09-14T19:13:40.842Z,14.90
2018-09-14T19:18:44.221Z,14.80
2018-09-14T19:21:12.799Z,14.80
2018-09-14T19:23:41.303Z,14.80
2018-09-14T19:26:09.844Z,14.80
2018-09-14T19:28:38.472Z,14.70
2018-09-14T19:31:07.060Z,14.60
2018-09-14T19:33:35.693Z,14.60
2018-09-14T19:36:04.244Z,14.50
2018-09-14T19:38:32.946Z,14.50
2018-09-14T19:41:01.379Z,14.50
2018-09-14T19:43:29.934Z,14.40
2018-09-14T19:45:58.432Z,14.40
2018-09-14T19:48:26.993Z,14.40
2018-09-14T19:50:55.536Z,14.40
2018-09-14T19:53:24.088Z,14.40
2018-09-14T19:55:52.626Z,14.30
2018-09-14T19:58:21.161Z,14.30
2018-09-14T20:00:49.825Z,14.30
2018-09-14T20:03:18.383Z,14.30
2018-09-14T20:05:46.898Z,14.30
2018-09-14T20:08:15.469Z,14.20
2018-09-14T20:10:43.981Z,14.20
2018-09-14T20:13:12.512Z,14.20
2018-09-14T20:15:41.036Z,14.10
2018-09-14T20:18:10.134Z,14.00
2018-09-14T20:20:38.614Z,13.90
2018-09-14T20:23:07.612Z,13.90
2018-09-14T20:25:36.184Z,13.80
2018-09-14T20:28:04.726Z,13.70
2018-09-14T20:30:33.344Z,13.60
2018-09-14T20:33:01.808Z,13.60
2018-09-14T20:35:30.715Z,13.50
2018-09-14T20:37:59.248Z,13.40
2018-09-14T20:40:27.775Z,13.30
2018-09-14T20:42:56.380Z,13.20
2018-09-14T20:45:24.898Z,13.20
2018-09-14T20:47:53.462Z,13.20
2018-09-14T20:50:22.020Z,13.10
2018-09-14T20:52:50.609Z,13.00
2018-09-14T20:55:19.106Z,13.00
2018-09-14T20:57:49.083Z,13.00
2018-09-14T21:00:18.562Z,13.10
2018-09-14T21:02:47.678Z,13.20
2018-09-14T21:05:16.238Z,13.30
2018-09-14T21:07:44.792Z,13.30
2018-09-14T21:10:13.337Z,13.30
2018-09-14T21:12:41.887Z,13.20
2018-09-14T21:15:10.577Z,13.20
2018-09-14T21:17:39.128Z,13.10
2018-09-14T21:20:07.723Z,13.00
2018-09-14T21:22:36.266Z,12.90
2018-09-14T21:25:04.819Z,12.90
2018-09-14T21:27:33.349Z,12.80
2018-09-14T21:30:01.884Z,12.80
2018-09-14T21:32:30.445Z,12.80
2018-09-14T21:34:59.380Z,12.80
2018-09-14T21:37:27.937Z,12.80
2018-09-14T21:39:56.609Z,12.80
2018-09-14T21:42:25.147Z,12.80
2018-09-14T21:44:55.701Z,12.80
2018-09-14T21:47:24.568Z,12.80
2018-09-14T21:49:53.123Z,12.70
2018-09-14T21:52:21.688Z,12.70
2018-09-14T21:54:51.826Z,12.70
2018-09-14T21:57:22.104Z,12.70
2018-09-14T21:59:50.697Z,12.70
2018-09-14T22:02:19.303Z,12.70
2018-09-14T22:04:48.105Z,12.60
2018-09-14T22:07:16.810Z,12.60
2018-09-14T22:09:46.145Z,12.50
2018-09-14T22:12:14.734Z,12.40
2018-09-14T22:14:44.469Z,12.20
2018-09-14T22:17:13.013Z,12.10
2018-09-14T22:19:41.997Z,12.10
2018-09-14T22:22:10.570Z,12.10
2018-09-14T22:24:39.114Z,12.00
2018-09-14T22:27:07.652Z,11.90
2018-09-14T22:29:37.812Z,11.80
2018-09-14T22:32:06.689Z,11.70
2018-09-14T22:34:35.245Z,11.60
2018-09-14T22:37:04.327Z,11.50
2018-09-14T22:39:32.945Z,11.50
2018-09-14T22:42:01.596Z,11.40
2018-09-14T22:44:30.128Z,11.30
2018-09-14T22:46:58.647Z,11.20
2018-09-14T22:49:27.241Z,11.20
2018-09-14T22:51:55.977Z,11.20
2018-09-14T22:54:24.517Z,11.10
2018-09-14T22:56:53.098Z,10.90
2018-09-14T22:59:21.649Z,10.80
2018-09-14T23:01:52.176Z,10.80
2018-09-14T23:04:20.957Z,10.80
2018-09-14T23:06:50.701Z,10.70
2018-09-14T23:09:19.284Z,10.70
2018-09-14T23:11:47.810Z,10.70
2018-09-14T23:14:16.357Z,10.70
2018-09-14T23:16:44.869Z,10.70
2018-09-14T23:19:15.559Z,10.70
2018-09-14T23:21:44.156Z,10.70
2018-09-14T23:24:12.697Z,10.70
2018-09-14T23:26:41.320Z,10.70
2018-09-14T23:29:09.865Z,10.60
2018-09-14T23:31:38.380Z,10.60
2018-09-14T23:34:07.100Z,10.60
2018-09-14T23:36:35.629Z,10.70
2018-09-14T23:39:05.856Z,10.70
2018-09-14T23:41:34.389Z,10.70
2018-09-14T23:44:02.904Z,10.80
2018-09-14T23:46:31.438Z,10.90
2018-09-14T23:48:59.989Z,10.90
2018-09-14T23:51:28.521Z,10.90
2018-09-14T23:53:57.059Z,11.00
2018-09-14T23:56:25.554Z,11.00
2018-09-14T23:58:54.092Z,11.00
